Terminal Aerodrome Forecast
Issued by NWS Wilmington, NC

Home | Current Version | Previous Version | Text Only | Print | Product List | Glossary On
Versions: 1 2 3 4 5 6 7 8 9 10 11 12 13
000
FTUS42 KILM 190500
TAFFLO
TAF
KFLO 190534Z 1906/2006 05012G21KT 3SM RA BR BKN007 OVC012
     FM191500 04014G20KT 6SM -RA SCT007 OVC015
     FM200000 03013KT P6SM -RA BKN007=

USA.gov is the U.S. government's official web portal to all federal, state and local government web resources and services.